createdAt,value
2018-07-05T00:01:11.206Z,14.80
2018-07-05T00:03:50.798Z,14.80
2018-07-05T00:06:30.571Z,14.90
2018-07-05T00:09:10.599Z,14.80
2018-07-05T00:11:50.392Z,14.80
2018-07-05T00:14:30.210Z,14.80
2018-07-05T00:17:10.075Z,14.80
2018-07-05T00:19:49.649Z,14.70
2018-07-05T00:22:29.234Z,14.70
2018-07-05T00:25:08.742Z,14.70
2018-07-05T00:27:48.477Z,14.70
2018-07-05T00:30:28.103Z,14.70
2018-07-05T00:33:07.873Z,14.70
2018-07-05T00:35:47.697Z,14.60
2018-07-05T00:38:27.310Z,14.60
2018-07-05T00:41:06.862Z,14.60
2018-07-05T00:43:46.625Z,14.60
2018-07-05T00:46:26.266Z,14.60
2018-07-05T00:49:06.143Z,14.60
2018-07-05T00:51:45.714Z,14.50
2018-07-05T00:54:25.325Z,14.50
2018-07-05T00:59:38.706Z,14.50
2018-07-05T01:02:18.351Z,14.50
2018-07-05T01:04:58.235Z,14.40
2018-07-05T01:07:37.977Z,14.40
2018-07-05T01:10:17.676Z,14.50
2018-07-05T01:12:57.394Z,14.50
2018-07-05T01:18:10.851Z,14.60
2018-07-05T01:20:50.559Z,14.70
2018-07-05T01:23:30.242Z,14.80
2018-07-05T01:26:09.967Z,14.80
2018-07-05T01:31:23.277Z,14.90
2018-07-05T01:34:03.137Z,14.90
2018-07-05T01:36:42.777Z,14.90
2018-07-05T01:39:22.389Z,15.00
2018-07-05T01:42:01.978Z,15.00
2018-07-05T01:44:41.521Z,15.00
2018-07-05T01:47:21.053Z,15.00
2018-07-05T01:50:00.713Z,15.00
2018-07-05T01:55:17.491Z,15.10
2018-07-05T01:57:57.139Z,15.10
2018-07-05T02:00:37.039Z,15.10
2018-07-05T02:03:16.716Z,15.00
2018-07-05T02:05:56.170Z,15.00
2018-07-05T02:08:36.033Z,14.90
2018-07-05T02:11:15.713Z,15.00
2018-07-05T02:13:55.435Z,15.00
2018-07-05T02:19:08.891Z,14.80
2018-07-05T02:21:48.526Z,14.80
2018-07-05T02:24:28.168Z,14.80
2018-07-05T02:29:41.498Z,14.90
2018-07-05T02:32:21.288Z,14.90
2018-07-05T02:35:00.912Z,14.90
2018-07-05T02:37:45.969Z,14.90
2018-07-05T02:42:59.344Z,14.90
2018-07-05T02:45:38.915Z,14.80
2018-07-05T02:48:18.466Z,14.80
2018-07-05T02:50:58.010Z,14.70
2018-07-05T02:53:37.811Z,14.70
2018-07-05T02:56:17.366Z,14.60
2018-07-05T02:58:57.332Z,14.60
2018-07-05T03:01:37.081Z,14.60
2018-07-05T03:04:16.906Z,14.70
2018-07-05T03:06:56.522Z,14.50
2018-07-05T03:09:36.214Z,14.50
2018-07-05T03:12:15.867Z,14.40
2018-07-05T03:14:55.550Z,14.40
2018-07-05T03:17:35.301Z,14.40
2018-07-05T03:20:15.003Z,14.40
2018-07-05T03:22:54.599Z,14.40
2018-07-05T03:25:34.322Z,14.40
2018-07-05T03:28:13.950Z,14.40
2018-07-05T03:30:53.606Z,14.40
2018-07-05T03:33:33.222Z,14.30
2018-07-05T03:36:13.125Z,14.30
2018-07-05T03:38:52.822Z,14.30
2018-07-05T03:44:06.322Z,14.30
2018-07-05T03:46:46.109Z,14.30
2018-07-05T03:49:25.914Z,14.30
2018-07-05T03:52:05.555Z,14.40
2018-07-05T03:54:45.134Z,14.40
2018-07-05T03:57:24.742Z,14.40
2018-07-05T04:00:04.350Z,14.40
2018-07-05T04:02:44.155Z,14.50
2018-07-05T04:07:57.448Z,14.50
2018-07-05T04:10:37.059Z,14.50
2018-07-05T04:15:50.775Z,14.50
2018-07-05T04:18:30.350Z,14.60
2018-07-05T04:23:43.625Z,14.60
2018-07-05T04:26:23.249Z,14.70
2018-07-05T04:29:03.129Z,14.80
2018-07-05T04:31:42.795Z,14.90
2018-07-05T04:34:22.401Z,15.00
2018-07-05T04:37:02.077Z,15.10
2018-07-05T04:39:41.966Z,15.40
2018-07-05T04:42:21.578Z,15.50
2018-07-05T04:45:01.289Z,15.60
2018-07-05T04:47:41.002Z,15.70
2018-07-05T04:50:20.755Z,15.70
2018-07-05T04:53:00.317Z,15.80
2018-07-05T04:55:40.063Z,15.90
2018-07-05T04:58:19.837Z,15.90
2018-07-05T05:00:59.553Z,15.80
2018-07-05T05:03:39.295Z,15.90
2018-07-05T05:06:19.005Z,15.90
2018-07-05T05:08:58.626Z,15.90
2018-07-05T05:11:38.294Z,16.00
2018-07-05T05:14:18.232Z,16.00
2018-07-05T05:19:31.720Z,16.00
2018-07-05T05:22:11.560Z,15.90
2018-07-05T05:24:51.177Z,15.80
2018-07-05T05:27:31.019Z,15.80
2018-07-05T05:30:10.766Z,15.70
2018-07-05T05:32:50.356Z,15.80
2018-07-05T05:35:29.949Z,15.90
2018-07-05T05:38:09.594Z,15.90
2018-07-05T05:40:49.185Z,16.00
2018-07-05T05:43:29.847Z,16.10
2018-07-05T05:46:09.633Z,16.10
2018-07-05T05:51:22.922Z,16.10
2018-07-05T05:54:02.665Z,16.10
2018-07-05T05:56:42.326Z,16.20
2018-07-05T05:59:22.024Z,16.20
2018-07-05T06:02:01.691Z,16.20
2018-07-05T06:04:41.324Z,16.10
2018-07-05T06:07:21.082Z,16.20
2018-07-05T06:10:00.700Z,16.30
2018-07-05T06:12:40.341Z,16.30
2018-07-05T06:15:19.894Z,16.30
2018-07-05T06:17:59.469Z,16.40
2018-07-05T06:20:39.738Z,16.50
2018-07-05T06:23:19.519Z,16.40
2018-07-05T06:25:59.197Z,16.40
2018-07-05T06:28:39.093Z,16.50
2018-07-05T06:31:18.918Z,16.60
2018-07-05T06:33:58.614Z,16.80
2018-07-05T06:36:38.233Z,16.90
2018-07-05T06:39:17.714Z,16.90
2018-07-05T06:41:57.214Z,17.00
2018-07-05T06:47:10.397Z,17.20
2018-07-05T06:49:49.862Z,17.30
2018-07-05T06:52:29.317Z,17.40
2018-07-05T06:55:08.857Z,17.40
2018-07-05T06:57:48.382Z,17.50
2018-07-05T07:00:28.062Z,17.50
2018-07-05T07:03:07.617Z,17.60
2018-07-05T07:05:47.438Z,17.60
2018-07-05T07:08:27.313Z,17.60
2018-07-05T07:11:07.134Z,17.60
2018-07-05T07:13:46.713Z,17.70
2018-07-05T07:16:26.359Z,17.70
2018-07-05T07:19:06.419Z,17.80
2018-07-05T07:21:46.218Z,17.80
2018-07-05T07:24:25.934Z,17.80
2018-07-05T07:29:39.543Z,17.60
2018-07-05T07:32:19.102Z,17.70
2018-07-05T07:34:58.807Z,17.70
2018-07-05T07:37:38.646Z,17.70
2018-07-05T07:40:18.236Z,17.70
2018-07-05T07:42:45.570Z,17.80
2018-07-05T07:45:12.881Z,18.00
2018-07-05T07:47:40.234Z,18.00
2018-07-05T07:50:07.560Z,18.00
2018-07-05T07:52:34.907Z,18.10
2018-07-05T07:55:02.230Z,18.30
2018-07-05T07:57:29.565Z,18.20
2018-07-05T07:59:56.899Z,18.00
2018-07-05T08:02:24.254Z,17.90
2018-07-05T08:04:51.578Z,17.70
2018-07-05T08:07:18.925Z,17.60
2018-07-05T08:09:46.255Z,17.60
2018-07-05T08:12:13.606Z,17.50
2018-07-05T08:14:40.929Z,17.60
2018-07-05T08:17:08.289Z,17.60
2018-07-05T08:19:35.622Z,17.70
2018-07-05T08:24:30.561Z,17.90
2018-07-05T08:26:57.907Z,18.00
2018-07-05T08:29:25.263Z,18.00
2018-07-05T08:31:52.614Z,18.00
2018-07-05T08:34:19.937Z,18.10
2018-07-05T08:36:47.258Z,18.10
2018-07-05T08:39:14.603Z,18.10
2018-07-05T08:41:41.930Z,18.20
2018-07-05T08:44:09.286Z,18.30
2018-07-05T08:46:36.609Z,18.40
2018-07-05T08:49:03.948Z,18.60
2018-07-05T08:51:31.275Z,18.90
2018-07-05T08:53:58.629Z,19.10
2018-07-05T08:56:25.964Z,19.20
2018-07-05T08:58:53.317Z,19.20
2018-07-05T09:01:20.654Z,19.50
2018-07-05T09:03:48.230Z,19.40
2018-07-05T09:06:15.878Z,19.50
2018-07-05T09:08:43.236Z,19.40
2018-07-05T09:11:10.561Z,19.60
2018-07-05T09:13:38.055Z,19.90
2018-07-05T09:16:05.374Z,20.10
2018-07-05T09:18:32.719Z,20.00
2018-07-05T09:23:27.847Z,20.20
2018-07-05T09:25:55.046Z,20.10
2018-07-05T09:28:22.386Z,20.00
2018-07-05T09:30:49.738Z,20.20
2018-07-05T09:33:17.063Z,20.50
2018-07-05T09:35:44.406Z,20.60
2018-07-05T09:38:11.730Z,20.40
2018-07-05T09:40:39.065Z,20.30
2018-07-05T09:43:06.397Z,20.10
2018-07-05T09:45:33.742Z,20.10
2018-07-05T09:48:01.078Z,19.90
2018-07-05T09:52:56.047Z,20.10
2018-07-05T09:55:23.400Z,20.00
2018-07-05T09:57:50.714Z,20.00
2018-07-05T10:00:22.255Z,20.00
2018-07-05T10:02:49.585Z,20.10
2018-07-05T10:05:16.939Z,20.00
2018-07-05T10:07:44.265Z,20.10
2018-07-05T10:10:11.597Z,20.20
2018-07-05T10:12:38.938Z,20.10
2018-07-05T10:15:06.280Z,20.10
2018-07-05T10:17:33.610Z,19.90
2018-07-05T10:20:00.967Z,20.10
2018-07-05T10:22:28.295Z,20.00
2018-07-05T10:24:55.641Z,20.10
2018-07-05T10:27:22.965Z,20.00
2018-07-05T10:30:02.709Z,20.20
2018-07-05T10:32:42.456Z,20.20
2018-07-05T10:35:09.799Z,20.10
2018-07-05T10:37:37.132Z,19.90
2018-07-05T10:42:50.549Z,20.00
2018-07-05T10:45:30.142Z,20.00
2018-07-05T10:48:09.757Z,20.10
2018-07-05T10:50:49.442Z,19.90
2018-07-05T10:53:29.117Z,19.70
2018-07-05T10:56:08.940Z,19.50
2018-07-05T10:58:48.723Z,19.50
2018-07-05T11:01:28.463Z,19.50
2018-07-05T11:04:08.030Z,19.20
2018-07-05T11:06:47.674Z,19.10
2018-07-05T11:09:27.381Z,19.20
2018-07-05T11:12:07.084Z,19.20
2018-07-05T11:14:46.890Z,19.00
2018-07-05T11:17:26.621Z,19.00
2018-07-05T11:20:06.379Z,19.10
2018-07-05T11:22:46.029Z,19.10
2018-07-05T11:25:25.662Z,19.00
2018-07-05T11:28:05.329Z,18.90
2018-07-05T11:30:44.753Z,18.90
2018-07-05T11:33:24.357Z,19.20
2018-07-05T11:36:03.994Z,19.10
2018-07-05T11:38:43.662Z,19.00
2018-07-05T11:41:23.122Z,19.10
2018-07-05T11:44:02.669Z,19.40
2018-07-05T11:46:42.285Z,19.30
2018-07-05T11:49:21.793Z,19.30
2018-07-05T11:52:01.649Z,19.30
2018-07-05T11:54:41.520Z,19.40
2018-07-05T11:57:21.100Z,19.30
2018-07-05T12:00:00.714Z,19.40
2018-07-05T12:02:40.402Z,19.50
2018-07-05T12:05:20.124Z,19.60
2018-07-05T12:07:59.777Z,19.50
2018-07-05T12:10:39.385Z,19.40
2018-07-05T12:15:52.832Z,19.40
2018-07-05T12:18:32.541Z,19.40
2018-07-05T12:21:12.322Z,19.30
2018-07-05T12:23:52.212Z,19.40
2018-07-05T12:26:31.915Z,19.60
2018-07-05T12:31:45.290Z,20.00
2018-07-05T12:34:25.094Z,19.70
2018-07-05T12:37:04.746Z,19.60
2018-07-05T12:42:18.175Z,19.90
2018-07-05T12:44:57.898Z,19.90
2018-07-05T12:47:37.709Z,19.60
2018-07-05T12:50:17.416Z,19.80
2018-07-05T12:52:56.958Z,20.10
2018-07-05T12:58:10.527Z,19.90
2018-07-05T13:00:50.187Z,19.90
2018-07-05T13:03:29.997Z,19.90
2018-07-05T13:06:09.685Z,19.60
2018-07-05T13:08:49.529Z,19.40
2018-07-05T13:11:29.298Z,19.60
2018-07-05T13:14:08.998Z,19.60
2018-07-05T13:16:48.715Z,19.80
2018-07-05T13:19:28.314Z,20.10
2018-07-05T13:22:08.103Z,20.10
2018-07-05T13:24:47.878Z,20.10
2018-07-05T13:27:27.694Z,20.20
2018-07-05T13:30:07.393Z,20.50
2018-07-05T13:32:47.026Z,20.80
2018-07-05T13:35:26.573Z,20.70
2018-07-05T13:38:06.390Z,21.10
2018-07-05T13:40:46.147Z,21.10
2018-07-05T13:43:25.750Z,20.90
2018-07-05T13:46:05.554Z,21.20
2018-07-05T13:48:45.355Z,21.10
2018-07-05T13:53:58.860Z,21.60
2018-07-05T13:56:38.682Z,21.90
2018-07-05T13:59:18.334Z,21.50
2018-07-05T14:01:57.925Z,21.50
2018-07-05T14:07:11.651Z,22.20
2018-07-05T14:09:51.289Z,22.20
2018-07-05T14:12:31.006Z,22.30
2018-07-05T14:15:10.715Z,22.10
2018-07-05T14:17:50.367Z,22.80
2018-07-05T14:20:30.054Z,23.10
2018-07-05T14:23:09.781Z,23.20
2018-07-05T14:25:49.410Z,22.80
2018-07-05T14:28:28.971Z,23.10
2018-07-05T14:31:08.643Z,22.80
2018-07-05T14:33:48.409Z,22.20
2018-07-05T14:36:28.066Z,22.50
2018-07-05T14:39:07.635Z,22.30
2018-07-05T14:41:47.485Z,22.20
2018-07-05T14:44:27.512Z,22.30
2018-07-05T14:47:07.148Z,21.90
2018-07-05T14:49:46.853Z,22.00
2018-07-05T14:52:26.661Z,22.20
2018-07-05T14:55:06.372Z,22.30
2018-07-05T14:57:46.122Z,22.00
2018-07-05T15:00:25.833Z,22.10
2018-07-05T15:03:05.581Z,21.90
2018-07-05T15:05:45.425Z,21.80
2018-07-05T15:08:25.005Z,21.70
2018-07-05T15:11:04.607Z,21.80
2018-07-05T15:13:44.448Z,22.00
2018-07-05T15:16:23.982Z,21.80
2018-07-05T15:19:03.698Z,21.90
2018-07-05T15:21:43.414Z,21.90
2018-07-05T15:24:23.152Z,21.80
2018-07-05T15:27:02.833Z,21.80
2018-07-05T15:29:42.344Z,21.80
2018-07-05T15:32:21.929Z,21.80
2018-07-05T15:35:01.594Z,21.90
2018-07-05T15:37:41.225Z,22.10
2018-07-05T15:40:20.941Z,22.10
2018-07-05T15:43:00.631Z,22.10
2018-07-05T15:45:40.305Z,22.20
2018-07-05T15:48:20.040Z,22.10
2018-07-05T15:50:59.692Z,22.30
2018-07-05T15:53:39.257Z,22.10
2018-07-05T15:56:18.868Z,22.00
2018-07-05T15:58:58.534Z,21.70
2018-07-05T16:01:38.110Z,21.80
2018-07-05T16:04:17.930Z,21.80
2018-07-05T16:06:57.532Z,22.00
2018-07-05T16:09:37.137Z,22.00
2018-07-05T16:12:16.846Z,22.10
2018-07-05T16:14:56.490Z,22.10
2018-07-05T16:17:36.202Z,22.00
2018-07-05T16:20:15.969Z,21.80
2018-07-05T16:22:55.601Z,22.00
2018-07-05T16:25:35.370Z,21.90
2018-07-05T16:28:15.206Z,21.80
2018-07-05T16:30:54.754Z,21.90
2018-07-05T16:33:34.258Z,21.70
2018-07-05T16:36:13.802Z,21.50
2018-07-05T16:38:53.337Z,21.50
2018-07-05T16:41:32.907Z,21.50
2018-07-05T16:44:12.423Z,21.60
2018-07-05T16:49:25.342Z,21.60
2018-07-05T16:52:05.102Z,21.60
2018-07-05T16:54:44.764Z,21.70
2018-07-05T16:57:24.339Z,21.70
2018-07-05T17:00:03.956Z,21.70
2018-07-05T17:02:43.658Z,21.60
2018-07-05T17:05:23.497Z,21.70
2018-07-05T17:10:36.642Z,21.70
2018-07-05T17:15:50.498Z,21.80
2018-07-05T17:18:30.209Z,21.70
2018-07-05T17:21:09.793Z,21.90
2018-07-05T17:23:49.285Z,21.90
2018-07-05T17:26:28.978Z,21.90
2018-07-05T17:29:08.717Z,21.90
2018-07-05T17:31:48.494Z,21.80
2018-07-05T17:34:28.461Z,21.80
2018-07-05T17:37:08.205Z,21.90
2018-07-05T17:39:47.826Z,22.00
2018-07-05T17:42:27.510Z,21.90
2018-07-05T17:45:07.281Z,21.60
2018-07-05T17:50:20.558Z,21.60
2018-07-05T17:53:00.179Z,21.70
2018-07-05T17:55:39.885Z,21.70
2018-07-05T17:58:19.669Z,21.60
2018-07-05T18:00:59.375Z,21.50
2018-07-05T18:03:39.062Z,21.40
2018-07-05T18:06:18.897Z,21.40
2018-07-05T18:08:58.517Z,21.20
2018-07-05T18:11:38.266Z,21.20
2018-07-05T18:14:17.998Z,21.20
2018-07-05T18:16:57.641Z,21.10
2018-07-05T18:19:37.307Z,21.00
2018-07-05T18:22:17.119Z,21.00
2018-07-05T18:24:56.805Z,20.90
2018-07-05T18:27:37.747Z,20.90
2018-07-05T18:30:17.391Z,20.80
2018-07-05T18:32:57.126Z,20.80
2018-07-05T18:35:36.809Z,20.80
2018-07-05T18:38:16.382Z,20.80
2018-07-05T18:40:56.373Z,20.70
2018-07-05T18:43:36.221Z,20.70
2018-07-05T18:46:15.878Z,20.60
2018-07-05T18:48:55.467Z,20.60
2018-07-05T18:51:35.189Z,20.50
2018-07-05T18:54:14.938Z,20.40
2018-07-05T18:56:54.559Z,20.40
2018-07-05T18:59:34.214Z,20.30
2018-07-05T19:02:13.810Z,20.30
2018-07-05T19:04:53.555Z,20.30
2018-07-05T19:07:33.362Z,20.20
2018-07-05T19:10:13.119Z,20.20
2018-07-05T19:12:52.863Z,20.10
2018-07-05T19:15:32.553Z,20.00
2018-07-05T19:18:12.227Z,20.00
2018-07-05T19:20:51.944Z,19.90
2018-07-05T19:23:31.639Z,19.90
2018-07-05T19:26:11.428Z,19.90
2018-07-05T19:28:51.071Z,19.80
2018-07-05T19:31:30.895Z,19.70
2018-07-05T19:34:10.608Z,19.70
2018-07-05T19:36:50.210Z,19.60
2018-07-05T19:39:29.950Z,19.60
2018-07-05T19:42:09.706Z,19.50
2018-07-05T19:44:49.561Z,19.40
2018-07-05T19:47:29.294Z,19.50
2018-07-05T19:50:08.934Z,19.40
2018-07-05T19:52:48.529Z,19.40
2018-07-05T19:55:28.118Z,19.40
2018-07-05T19:58:07.722Z,19.30
2018-07-05T20:00:47.523Z,19.30
2018-07-05T20:03:27.061Z,19.20
2018-07-05T20:06:06.802Z,19.10
2018-07-05T20:08:46.546Z,19.10
2018-07-05T20:11:26.114Z,19.10
2018-07-05T20:14:05.765Z,19.10
2018-07-05T20:19:19.772Z,19.00
2018-07-05T20:21:59.412Z,19.00
2018-07-05T20:24:39.113Z,19.00
2018-07-05T20:27:18.779Z,18.90
2018-07-05T20:32:32.054Z,18.80
2018-07-05T20:35:11.659Z,18.80
2018-07-05T20:37:51.330Z,18.80
2018-07-05T20:40:30.995Z,18.80
2018-07-05T20:43:10.616Z,18.80
2018-07-05T20:45:50.430Z,18.80
2018-07-05T20:48:30.158Z,18.80
2018-07-05T20:51:09.954Z,18.70
2018-07-05T20:53:49.714Z,18.70
2018-07-05T20:56:29.429Z,18.60
2018-07-05T20:59:09.088Z,18.40
2018-07-05T21:01:48.785Z,18.30
2018-07-05T21:04:28.554Z,18.30
2018-07-05T21:07:08.085Z,18.20
2018-07-05T21:12:21.376Z,18.10
2018-07-05T21:15:01.006Z,18.10
2018-07-05T21:17:40.806Z,18.10
2018-07-05T21:22:54.171Z,18.00
2018-07-05T21:25:33.649Z,18.00
2018-07-05T21:28:13.229Z,18.00
2018-07-05T21:30:52.785Z,18.00
2018-07-05T21:33:32.434Z,17.90
2018-07-05T21:36:12.112Z,17.90
2018-07-05T21:38:51.719Z,17.90
2018-07-05T21:41:31.363Z,17.80
2018-07-05T21:44:10.855Z,17.80
2018-07-05T21:46:50.647Z,17.80
2018-07-05T21:49:30.373Z,17.70
2018-07-05T21:52:10.189Z,17.70
2018-07-05T21:54:49.783Z,17.70
2018-07-05T21:57:29.327Z,17.70
2018-07-05T22:00:08.842Z,17.60
2018-07-05T22:02:48.610Z,17.60
2018-07-05T22:05:28.333Z,17.60
2018-07-05T22:10:41.634Z,17.60
2018-07-05T22:13:21.273Z,17.50
2018-07-05T22:16:00.833Z,17.60
2018-07-05T22:18:45.931Z,17.50
2018-07-05T22:24:05.347Z,17.50
2018-07-05T22:26:46.010Z,17.50
2018-07-05T22:29:31.272Z,17.50
2018-07-05T22:32:10.982Z,17.50
2018-07-05T22:34:50.569Z,17.40
2018-07-05T22:37:30.244Z,17.40
2018-07-05T22:40:09.862Z,17.40
2018-07-05T22:42:49.577Z,17.40
2018-07-05T22:48:02.822Z,17.40
2018-07-05T22:50:42.421Z,17.30
2018-07-05T22:53:22.037Z,17.30
2018-07-05T22:56:01.818Z,17.40
2018-07-05T22:58:41.630Z,17.40
2018-07-05T23:01:21.481Z,17.50
2018-07-05T23:04:01.145Z,17.50
2018-07-05T23:06:40.737Z,17.50
2018-07-05T23:09:20.347Z,17.50
2018-07-05T23:11:59.986Z,17.50
2018-07-05T23:14:39.652Z,17.50
2018-07-05T23:17:19.337Z,17.50
2018-07-05T23:19:58.921Z,17.50
2018-07-05T23:25:12.189Z,17.60
2018-07-05T23:27:51.763Z,17.60
2018-07-05T23:30:31.341Z,17.60
2018-07-05T23:35:44.949Z,17.60
2018-07-05T23:38:24.599Z,17.60
2018-07-05T23:41:04.354Z,17.70
2018-07-05T23:43:43.910Z,17.70
2018-07-05T23:46:23.657Z,17.60
2018-07-05T23:49:03.299Z,17.60
2018-07-05T23:51:42.954Z,17.60
2018-07-05T23:54:22.601Z,17.60
2018-07-05T23:59:35.901Z,17.60
